sensor_id;sensor_type;location;lat;lon;timestamp;P1;durP1;ratioP1;P2;durP2;ratioP2
17369;SDS011;8802;52.402;4.920;2024-01-07T00:01:30;8.18;;;7.35;;
17369;SDS011;8802;52.402;4.920;2024-01-07T00:03:58;8.52;;;7.72;;
17369;SDS011;8802;52.402;4.920;2024-01-07T00:06:25;7.55;;;6.85;;
17369;SDS011;8802;52.402;4.920;2024-01-07T00:08:52;8.18;;;7.38;;
17369;SDS011;8802;52.402;4.920;2024-01-07T00:11:20;7.22;;;6.53;;
17369;SDS011;8802;52.402;4.920;2024-01-07T00:13:47;6.88;;;6.18;;
17369;SDS011;8802;52.402;4.920;2024-01-07T00:16:14;7.97;;;7.28;;
17369;SDS011;8802;52.402;4.920;2024-01-07T00:18:41;8.00;;;7.32;;
17369;SDS011;8802;52.402;4.920;2024-01-07T00:21:10;7.55;;;6.75;;
17369;SDS011;8802;52.402;4.920;2024-01-07T00:23:37;8.95;;;7.90;;
17369;SDS011;8802;52.402;4.920;2024-01-07T00:26:04;8.32;;;7.53;;
17369;SDS011;8802;52.402;4.920;2024-01-07T00:28:32;9.15;;;8.23;;
17369;SDS011;8802;52.402;4.920;2024-01-07T00:30:59;8.45;;;7.65;;
17369;SDS011;8802;52.402;4.920;2024-01-07T00:33:25;8.98;;;8.07;;
17369;SDS011;8802;52.402;4.920;2024-01-07T00:35:52;9.93;;;8.93;;
17369;SDS011;8802;52.402;4.920;2024-01-07T00:38:20;9.90;;;8.90;;
17369;SDS011;8802;52.402;4.920;2024-01-07T00:40:47;8.90;;;8.05;;
17369;SDS011;8802;52.402;4.920;2024-01-07T00:43:16;8.55;;;7.72;;
17369;SDS011;8802;52.402;4.920;2024-01-07T00:45:43;8.40;;;7.53;;
17369;SDS011;8802;52.402;4.920;2024-01-07T00:48:10;8.57;;;7.78;;
17369;SDS011;8802;52.402;4.920;2024-01-07T00:50:38;8.15;;;7.25;;
17369;SDS011;8802;52.402;4.920;2024-01-07T00:53:04;7.70;;;7.03;;
17369;SDS011;8802;52.402;4.920;2024-01-07T00:55:33;8.48;;;7.65;;
17369;SDS011;8802;52.402;4.920;2024-01-07T00:58:00;8.52;;;7.68;;
17369;SDS011;8802;52.402;4.920;2024-01-07T01:00:27;8.02;;;7.22;;
17369;SDS011;8802;52.402;4.920;2024-01-07T01:02:54;7.95;;;7.18;;
17369;SDS011;8802;52.402;4.920;2024-01-07T01:05:22;7.90;;;7.18;;
17369;SDS011;8802;52.402;4.920;2024-01-07T01:07:49;8.20;;;7.40;;
17369;SDS011;8802;52.402;4.920;2024-01-07T01:10:17;7.85;;;7.03;;
17369;SDS011;8802;52.402;4.920;2024-01-07T01:12:45;8.43;;;7.63;;
17369;SDS011;8802;52.402;4.920;2024-01-07T01:15:12;7.55;;;6.85;;
17369;SDS011;8802;52.402;4.920;2024-01-07T01:17:41;7.35;;;6.65;;
17369;SDS011;8802;52.402;4.920;2024-01-07T01:20:08;8.25;;;7.22;;
17369;SDS011;8802;52.402;4.920;2024-01-07T01:22:36;7.88;;;7.18;;
17369;SDS011;8802;52.402;4.920;2024-01-07T01:25:03;7.57;;;6.70;;
17369;SDS011;8802;52.402;4.920;2024-01-07T01:27:30;8.18;;;7.38;;
17369;SDS011;8802;52.402;4.920;2024-01-07T01:29:59;7.88;;;6.82;;
17369;SDS011;8802;52.402;4.920;2024-01-07T01:32:25;7.80;;;7.07;;
17369;SDS011;8802;52.402;4.920;2024-01-07T01:34:55;7.70;;;6.95;;
17369;SDS011;8802;52.402;4.920;2024-01-07T01:37:22;8.68;;;7.78;;
17369;SDS011;8802;52.402;4.920;2024-01-07T01:39:48;8.73;;;7.82;;
17369;SDS011;8802;52.402;4.920;2024-01-07T01:42:15;7.75;;;6.97;;
17369;SDS011;8802;52.402;4.920;2024-01-07T01:44:42;8.85;;;7.78;;
17369;SDS011;8802;52.402;4.920;2024-01-07T01:47:11;8.82;;;8.02;;
17369;SDS011;8802;52.402;4.920;2024-01-07T01:49:38;8.27;;;7.47;;
17369;SDS011;8802;52.402;4.920;2024-01-07T01:52:06;8.90;;;7.22;;
17369;SDS011;8802;52.402;4.920;2024-01-07T01:54:34;7.80;;;7.10;;
17369;SDS011;8802;52.402;4.920;2024-01-07T01:57:01;7.15;;;6.53;;
17369;SDS011;8802;52.402;4.920;2024-01-07T01:59:28;8.05;;;7.25;;
17369;SDS011;8802;52.402;4.920;2024-01-07T02:01:56;7.43;;;6.32;;
17369;SDS011;8802;52.402;4.920;2024-01-07T02:04:24;7.70;;;6.93;;
17369;SDS011;8802;52.402;4.920;2024-01-07T02:06:51;8.00;;;7.20;;
17369;SDS011;8802;52.402;4.920;2024-01-07T02:09:18;7.30;;;6.60;;
17369;SDS011;8802;52.402;4.920;2024-01-07T02:11:59;7.78;;;7.07;;
17369;SDS011;8802;52.402;4.920;2024-01-07T02:14:27;6.82;;;6.07;;
17369;SDS011;8802;52.402;4.920;2024-01-07T02:16:54;7.50;;;6.80;;
17369;SDS011;8802;52.402;4.920;2024-01-07T02:19:22;7.53;;;6.82;;
17369;SDS011;8802;52.402;4.920;2024-01-07T02:21:51;7.65;;;6.93;;
17369;SDS011;8802;52.402;4.920;2024-01-07T02:24:21;8.75;;;8.00;;
17369;SDS011;8802;52.402;4.920;2024-01-07T02:26:48;9.13;;;8.32;;
17369;SDS011;8802;52.402;4.920;2024-01-07T02:29:15;9.80;;;8.90;;
17369;SDS011;8802;52.402;4.920;2024-01-07T02:31:42;8.93;;;8.10;;
17369;SDS011;8802;52.402;4.920;2024-01-07T02:34:09;9.35;;;8.27;;
17369;SDS011;8802;52.402;4.920;2024-01-07T02:36:36;9.40;;;8.52;;
17369;SDS011;8802;52.402;4.920;2024-01-07T02:39:03;9.18;;;8.43;;
17369;SDS011;8802;52.402;4.920;2024-01-07T02:41:33;8.73;;;7.82;;
17369;SDS011;8802;52.402;4.920;2024-01-07T02:44:00;7.50;;;6.72;;
17369;SDS011;8802;52.402;4.920;2024-01-07T02:46:27;7.60;;;6.90;;
17369;SDS011;8802;52.402;4.920;2024-01-07T02:48:55;7.72;;;7.10;;
17369;SDS011;8802;52.402;4.920;2024-01-07T02:51:23;8.43;;;7.65;;
17369;SDS011;8802;52.402;4.920;2024-01-07T02:53:50;8.65;;;7.88;;
17369;SDS011;8802;52.402;4.920;2024-01-07T02:56:17;9.02;;;8.13;;
17369;SDS011;8802;52.402;4.920;2024-01-07T02:58:46;7.65;;;6.95;;
17369;SDS011;8802;52.402;4.920;2024-01-07T03:01:13;7.75;;;7.05;;
17369;SDS011;8802;52.402;4.920;2024-01-07T03:03:40;9.77;;;8.93;;
17369;SDS011;8802;52.402;4.920;2024-01-07T03:06:06;8.73;;;7.90;;
17369;SDS011;8802;52.402;4.920;2024-01-07T03:08:34;8.80;;;8.00;;
17369;SDS011;8802;52.402;4.920;2024-01-07T03:11:04;8.27;;;7.47;;
17369;SDS011;8802;52.402;4.920;2024-01-07T03:13:31;7.68;;;6.70;;
17369;SDS011;8802;52.402;4.920;2024-01-07T03:16:02;9.05;;;8.18;;
17369;SDS011;8802;52.402;4.920;2024-01-07T03:18:29;9.23;;;8.32;;
17369;SDS011;8802;52.402;4.920;2024-01-07T03:20:56;9.40;;;8.18;;
17369;SDS011;8802;52.402;4.920;2024-01-07T03:23:23;9.13;;;8.23;;
17369;SDS011;8802;52.402;4.920;2024-01-07T03:25:51;9.40;;;8.50;;
17369;SDS011;8802;52.402;4.920;2024-01-07T03:28:17;8.93;;;8.02;;
17369;SDS011;8802;52.402;4.920;2024-01-07T03:30:44;10.05;;;9.15;;
17369;SDS011;8802;52.402;4.920;2024-01-07T03:33:12;9.73;;;8.82;;
17369;SDS011;8802;52.402;4.920;2024-01-07T03:35:39;9.57;;;8.68;;
17369;SDS011;8802;52.402;4.920;2024-01-07T03:38:06;9.32;;;8.52;;
17369;SDS011;8802;52.402;4.920;2024-01-07T03:40:33;8.95;;;8.02;;
17369;SDS011;8802;52.402;4.920;2024-01-07T03:43:00;8.75;;;7.95;;
17369;SDS011;8802;52.402;4.920;2024-01-07T03:45:27;9.23;;;8.35;;
17369;SDS011;8802;52.402;4.920;2024-01-07T03:47:54;10.15;;;9.15;;
17369;SDS011;8802;52.402;4.920;2024-01-07T03:50:22;9.32;;;8.48;;
17369;SDS011;8802;52.402;4.920;2024-01-07T03:52:50;8.60;;;7.78;;
17369;SDS011;8802;52.402;4.920;2024-01-07T03:55:17;9.25;;;8.32;;
17369;SDS011;8802;52.402;4.920;2024-01-07T03:57:44;8.32;;;7.15;;
17369;SDS011;8802;52.402;4.920;2024-01-07T04:00:11;8.85;;;8.05;;
17369;SDS011;8802;52.402;4.920;2024-01-07T04:02:38;10.15;;;9.15;;
17369;SDS011;8802;52.402;4.920;2024-01-07T04:05:05;10.50;;;9.52;;
17369;SDS011;8802;52.402;4.920;2024-01-07T04:07:33;9.90;;;8.90;;
17369;SDS011;8802;52.402;4.920;2024-01-07T04:10:00;10.75;;;9.30;;
17369;SDS011;8802;52.402;4.920;2024-01-07T04:12:27;8.80;;;7.90;;
17369;SDS011;8802;52.402;4.920;2024-01-07T04:14:54;8.80;;;7.88;;
17369;SDS011;8802;52.402;4.920;2024-01-07T04:17:22;10.45;;;9.48;;
17369;SDS011;8802;52.402;4.920;2024-01-07T04:19:50;10.27;;;9.30;;
17369;SDS011;8802;52.402;4.920;2024-01-07T04:22:18;9.77;;;8.82;;
17369;SDS011;8802;52.402;4.920;2024-01-07T04:24:46;10.10;;;9.10;;
17369;SDS011;8802;52.402;4.920;2024-01-07T04:27:13;9.40;;;8.43;;
17369;SDS011;8802;52.402;4.920;2024-01-07T04:29:40;8.35;;;7.50;;
17369;SDS011;8802;52.402;4.920;2024-01-07T04:32:07;8.00;;;7.15;;
17369;SDS011;8802;52.402;4.920;2024-01-07T04:34:34;8.88;;;8.07;;
17369;SDS011;8802;52.402;4.920;2024-01-07T04:37:01;9.32;;;8.40;;
17369;SDS011;8802;52.402;4.920;2024-01-07T04:39:27;9.77;;;8.88;;
17369;SDS011;8802;52.402;4.920;2024-01-07T04:41:56;9.85;;;8.93;;
17369;SDS011;8802;52.402;4.920;2024-01-07T04:44:23;9.90;;;8.90;;
17369;SDS011;8802;52.402;4.920;2024-01-07T04:46:49;9.98;;;8.98;;
17369;SDS011;8802;52.402;4.920;2024-01-07T04:49:16;10.43;;;8.60;;
17369;SDS011;8802;52.402;4.920;2024-01-07T04:51:43;10.40;;;9.40;;
17369;SDS011;8802;52.402;4.920;2024-01-07T04:54:11;9.45;;;8.50;;
17369;SDS011;8802;52.402;4.920;2024-01-07T04:56:38;10.40;;;9.40;;
17369;SDS011;8802;52.402;4.920;2024-01-07T04:59:08;9.52;;;8.52;;
17369;SDS011;8802;52.402;4.920;2024-01-07T05:01:35;10.65;;;9.52;;
17369;SDS011;8802;52.402;4.920;2024-01-07T05:04:02;10.35;;;9.40;;
17369;SDS011;8802;52.402;4.920;2024-01-07T05:06:30;10.48;;;9.48;;
17369;SDS011;8802;52.402;4.920;2024-01-07T05:08:57;10.98;;;9.90;;
17369;SDS011;8802;52.402;4.920;2024-01-07T05:11:24;12.00;;;10.80;;
17369;SDS011;8802;52.402;4.920;2024-01-07T05:13:52;10.07;;;9.07;;
17369;SDS011;8802;52.402;4.920;2024-01-07T05:16:21;10.85;;;9.63;;
17369;SDS011;8802;52.402;4.920;2024-01-07T05:18:48;11.85;;;10.65;;
17369;SDS011;8802;52.402;4.920;2024-01-07T05:21:17;10.88;;;9.75;;
17369;SDS011;8802;52.402;4.920;2024-01-07T05:23:43;11.98;;;10.75;;
17369;SDS011;8802;52.402;4.920;2024-01-07T05:26:10;12.30;;;10.88;;
17369;SDS011;8802;52.402;4.920;2024-01-07T05:28:37;13.18;;;11.88;;
17369;SDS011;8802;52.402;4.920;2024-01-07T05:31:04;13.38;;;11.50;;
17369;SDS011;8802;52.402;4.920;2024-01-07T05:33:42;10.80;;;9.73;;
17369;SDS011;8802;52.402;4.920;2024-01-07T05:36:09;14.95;;;12.23;;
17369;SDS011;8802;52.402;4.920;2024-01-07T05:38:36;11.60;;;10.40;;
17369;SDS011;8802;52.402;4.920;2024-01-07T05:41:03;12.95;;;11.63;;
17369;SDS011;8802;52.402;4.920;2024-01-07T05:43:31;11.98;;;10.77;;
17369;SDS011;8802;52.402;4.920;2024-01-07T05:45:58;11.88;;;10.70;;
17369;SDS011;8802;52.402;4.920;2024-01-07T05:48:26;13.25;;;11.82;;
17369;SDS011;8802;52.402;4.920;2024-01-07T05:50:55;11.40;;;9.80;;
17369;SDS011;8802;52.402;4.920;2024-01-07T05:53:23;10.63;;;9.57;;
17369;SDS011;8802;52.402;4.920;2024-01-07T05:55:49;11.13;;;9.93;;
17369;SDS011;8802;52.402;4.920;2024-01-07T05:58:16;10.02;;;9.07;;
17369;SDS011;8802;52.402;4.920;2024-01-07T06:00:43;9.27;;;8.35;;
17369;SDS011;8802;52.402;4.920;2024-01-07T06:03:10;11.75;;;8.52;;
17369;SDS011;8802;52.402;4.920;2024-01-07T06:05:37;9.40;;;8.40;;
17369;SDS011;8802;52.402;4.920;2024-01-07T06:08:06;9.90;;;8.95;;
17369;SDS011;8802;52.402;4.920;2024-01-07T06:10:33;8.05;;;7.25;;
17369;SDS011;8802;52.402;4.920;2024-01-07T06:13:06;8.93;;;8.02;;
17369;SDS011;8802;52.402;4.920;2024-01-07T06:15:35;8.20;;;7.45;;
17369;SDS011;8802;52.402;4.920;2024-01-07T06:18:04;8.13;;;7.32;;
17369;SDS011;8802;52.402;4.920;2024-01-07T06:20:33;8.85;;;7.95;;
17369;SDS011;8802;52.402;4.920;2024-01-07T06:23:00;8.25;;;7.38;;
17369;SDS011;8802;52.402;4.920;2024-01-07T06:25:31;8.02;;;7.20;;
17369;SDS011;8802;52.402;4.920;2024-01-07T06:28:03;7.63;;;6.82;;
17369;SDS011;8802;52.402;4.920;2024-01-07T06:30:31;7.82;;;7.03;;
17369;SDS011;8802;52.402;4.920;2024-01-07T06:32:58;8.15;;;7.30;;
17369;SDS011;8802;52.402;4.920;2024-01-07T06:35:26;9.27;;;8.27;;
17369;SDS011;8802;52.402;4.920;2024-01-07T06:37:54;7.43;;;6.68;;
17369;SDS011;8802;52.402;4.920;2024-01-07T06:40:23;8.75;;;7.30;;
17369;SDS011;8802;52.402;4.920;2024-01-07T06:42:53;7.50;;;6.70;;
17369;SDS011;8802;52.402;4.920;2024-01-07T06:45:21;7.55;;;6.72;;
17369;SDS011;8802;52.402;4.920;2024-01-07T06:47:49;8.38;;;7.57;;
17369;SDS011;8802;52.402;4.920;2024-01-07T06:50:16;8.10;;;7.30;;
17369;SDS011;8802;52.402;4.920;2024-01-07T06:52:45;7.85;;;7.05;;
17369;SDS011;8802;52.402;4.920;2024-01-07T06:55:11;8.05;;;6.90;;
17369;SDS011;8802;52.402;4.920;2024-01-07T06:57:38;8.45;;;6.65;;
17369;SDS011;8802;52.402;4.920;2024-01-07T07:00:07;7.68;;;6.88;;
17369;SDS011;8802;52.402;4.920;2024-01-07T07:02:35;6.45;;;5.85;;
17369;SDS011;8802;52.402;4.920;2024-01-07T07:05:01;6.13;;;5.55;;
17369;SDS011;8802;52.402;4.920;2024-01-07T07:07:29;7.03;;;6.32;;
17369;SDS011;8802;52.402;4.920;2024-01-07T07:09:57;7.53;;;6.82;;
17369;SDS011;8802;52.402;4.920;2024-01-07T07:12:26;6.80;;;5.95;;
17369;SDS011;8802;52.402;4.920;2024-01-07T07:14:54;7.38;;;5.97;;
17369;SDS011;8802;52.402;4.920;2024-01-07T07:17:25;7.07;;;6.32;;
17369;SDS011;8802;52.402;4.920;2024-01-07T07:19:53;6.45;;;5.85;;
17369;SDS011;8802;52.402;4.920;2024-01-07T07:22:20;6.20;;;5.60;;
17369;SDS011;8802;52.402;4.920;2024-01-07T07:24:48;6.43;;;5.82;;
17369;SDS011;8802;52.402;4.920;2024-01-07T07:27:17;5.85;;;5.25;;
17369;SDS011;8802;52.402;4.920;2024-01-07T07:29:45;5.60;;;5.10;;
17369;SDS011;8802;52.402;4.920;2024-01-07T07:32:14;5.20;;;4.65;;
17369;SDS011;8802;52.402;4.920;2024-01-07T07:34:43;7.05;;;5.20;;
17369;SDS011;8802;52.402;4.920;2024-01-07T07:37:10;5.72;;;5.20;;
17369;SDS011;8802;52.402;4.920;2024-01-07T07:39:38;6.88;;;5.97;;
17369;SDS011;8802;52.402;4.920;2024-01-07T07:42:06;7.50;;;5.85;;
17369;SDS011;8802;52.402;4.920;2024-01-07T07:44:35;5.68;;;5.03;;
17369;SDS011;8802;52.402;4.920;2024-01-07T07:47:04;5.97;;;5.38;;
17369;SDS011;8802;52.402;4.920;2024-01-07T07:49:33;6.05;;;5.13;;
17369;SDS011;8802;52.402;4.920;2024-01-07T07:52:03;6.88;;;5.60;;
17369;SDS011;8802;52.402;4.920;2024-01-07T07:54:31;5.53;;;5.03;;
17369;SDS011;8802;52.402;4.920;2024-01-07T07:57:00;5.88;;;4.95;;
17369;SDS011;8802;52.402;4.920;2024-01-07T07:59:28;7.05;;;5.20;;
17369;SDS011;8802;52.402;4.920;2024-01-07T08:01:56;6.35;;;5.53;;
17369;SDS011;8802;52.402;4.920;2024-01-07T08:04:24;5.55;;;4.95;;
17369;SDS011;8802;52.402;4.920;2024-01-07T08:06:51;7.28;;;5.40;;
17369;SDS011;8802;52.402;4.920;2024-01-07T08:09:20;7.80;;;5.57;;
17369;SDS011;8802;52.402;4.920;2024-01-07T08:11:46;6.13;;;5.13;;
17369;SDS011;8802;52.402;4.920;2024-01-07T08:14:13;5.88;;;4.13;;
17369;SDS011;8802;52.402;4.920;2024-01-07T08:16:40;5.57;;;4.80;;
17369;SDS011;8802;52.402;4.920;2024-01-07T08:19:07;7.95;;;4.97;;
17369;SDS011;8802;52.402;4.920;2024-01-07T08:21:34;5.10;;;4.38;;
17369;SDS011;8802;52.402;4.920;2024-01-07T08:24:01;6.70;;;5.50;;
17369;SDS011;8802;52.402;4.920;2024-01-07T08:26:31;6.32;;;5.63;;
17369;SDS011;8802;52.402;4.920;2024-01-07T08:29:00;5.97;;;4.35;;
17369;SDS011;8802;52.402;4.920;2024-01-07T08:31:28;5.65;;;4.93;;
17369;SDS011;8802;52.402;4.920;2024-01-07T08:33:56;5.95;;;4.80;;
17369;SDS011;8802;52.402;4.920;2024-01-07T08:36:23;4.93;;;4.43;;
17369;SDS011;8802;52.402;4.920;2024-01-07T08:38:51;4.82;;;4.38;;
17369;SDS011;8802;52.402;4.920;2024-01-07T08:41:18;4.65;;;4.25;;
17369;SDS011;8802;52.402;4.920;2024-01-07T08:43:48;6.45;;;4.18;;
17369;SDS011;8802;52.402;4.920;2024-01-07T08:46:15;4.45;;;3.90;;
17369;SDS011;8802;52.402;4.920;2024-01-07T08:48:43;4.63;;;3.70;;
17369;SDS011;8802;52.402;4.920;2024-01-07T08:51:11;4.78;;;4.25;;
17369;SDS011;8802;52.402;4.920;2024-01-07T08:53:38;4.47;;;3.60;;
17369;SDS011;8802;52.402;4.920;2024-01-07T08:56:05;3.97;;;3.58;;
17369;SDS011;8802;52.402;4.920;2024-01-07T08:58:33;4.43;;;3.85;;
17369;SDS011;8802;52.402;4.920;2024-01-07T09:01:02;4.38;;;3.40;;
17369;SDS011;8802;52.402;4.920;2024-01-07T09:03:29;3.90;;;3.30;;
17369;SDS011;8802;52.402;4.920;2024-01-07T09:05:56;4.43;;;3.63;;
17369;SDS011;8802;52.402;4.920;2024-01-07T09:08:23;5.10;;;3.88;;
17369;SDS011;8802;52.402;4.920;2024-01-07T09:10:50;4.85;;;4.18;;
17369;SDS011;8802;52.402;4.920;2024-01-07T09:13:17;5.65;;;4.25;;
17369;SDS011;8802;52.402;4.920;2024-01-07T09:15:43;4.20;;;3.72;;
17369;SDS011;8802;52.402;4.920;2024-01-07T09:18:12;6.57;;;3.55;;
17369;SDS011;8802;52.402;4.920;2024-01-07T09:20:39;4.70;;;3.60;;
17369;SDS011;8802;52.402;4.920;2024-01-07T09:23:06;5.47;;;3.35;;
17369;SDS011;8802;52.402;4.920;2024-01-07T09:25:33;6.50;;;3.33;;
17369;SDS011;8802;52.402;4.920;2024-01-07T09:28:00;3.90;;;3.58;;
17369;SDS011;8802;52.402;4.920;2024-01-07T09:30:30;4.70;;;3.45;;
17369;SDS011;8802;52.402;4.920;2024-01-07T09:32:59;4.93;;;3.65;;
17369;SDS011;8802;52.402;4.920;2024-01-07T09:35:31;4.72;;;3.35;;
17369;SDS011;8802;52.402;4.920;2024-01-07T09:37:59;3.47;;;3.00;;
17369;SDS011;8802;52.402;4.920;2024-01-07T09:40:29;4.13;;;2.97;;
17369;SDS011;8802;52.402;4.920;2024-01-07T09:42:56;4.40;;;2.83;;
17369;SDS011;8802;52.402;4.920;2024-01-07T09:45:24;6.32;;;2.97;;
17369;SDS011;8802;52.402;4.920;2024-01-07T09:47:52;5.47;;;2.83;;
17369;SDS011;8802;52.402;4.920;2024-01-07T09:50:19;3.42;;;3.00;;
17369;SDS011;8802;52.402;4.920;2024-01-07T09:52:47;4.43;;;2.92;;
17369;SDS011;8802;52.402;4.920;2024-01-07T09:55:16;3.13;;;2.53;;
17369;SDS011;8802;52.402;4.920;2024-01-07T09:57:50;3.53;;;3.13;;
17369;SDS011;8802;52.402;4.920;2024-01-07T10:00:17;3.40;;;2.88;;
17369;SDS011;8802;52.402;4.920;2024-01-07T10:02:44;3.35;;;2.80;;
17369;SDS011;8802;52.402;4.920;2024-01-07T10:05:11;4.18;;;2.50;;
17369;SDS011;8802;52.402;4.920;2024-01-07T10:07:38;2.47;;;2.28;;
17369;SDS011;8802;52.402;4.920;2024-01-07T10:10:13;4.47;;;2.75;;
17369;SDS011;8802;52.402;4.920;2024-01-07T10:12:43;3.75;;;2.78;;
17369;SDS011;8802;52.402;4.920;2024-01-07T10:15:10;2.58;;;2.28;;
17369;SDS011;8802;52.402;4.920;2024-01-07T10:17:37;3.92;;;2.90;;
17369;SDS011;8802;52.402;4.920;2024-01-07T10:20:07;3.33;;;2.63;;
17369;SDS011;8802;52.402;4.920;2024-01-07T10:22:35;5.60;;;2.70;;
17369;SDS011;8802;52.402;4.920;2024-01-07T10:25:03;4.75;;;2.70;;
17369;SDS011;8802;52.402;4.920;2024-01-07T10:27:34;2.45;;;2.13;;
17369;SDS011;8802;52.402;4.920;2024-01-07T10:30:03;2.85;;;2.15;;
17369;SDS011;8802;52.402;4.920;2024-01-07T10:32:31;3.47;;;2.42;;
17369;SDS011;8802;52.402;4.920;2024-01-07T10:35:01;2.78;;;2.50;;
17369;SDS011;8802;52.402;4.920;2024-01-07T10:37:29;4.30;;;2.50;;
17369;SDS011;8802;52.402;4.920;2024-01-07T10:39:57;2.55;;;2.33;;
17369;SDS011;8802;52.402;4.920;2024-01-07T10:42:28;3.63;;;2.38;;
17369;SDS011;8802;52.402;4.920;2024-01-07T10:44:58;3.33;;;2.25;;
17369;SDS011;8802;52.402;4.920;2024-01-07T10:47:27;4.10;;;2.33;;
17369;SDS011;8802;52.402;4.920;2024-01-07T10:49:56;2.80;;;2.33;;
17369;SDS011;8802;52.402;4.920;2024-01-07T10:52:26;4.05;;;2.17;;
17369;SDS011;8802;52.402;4.920;2024-01-07T10:54:53;3.72;;;2.53;;
17369;SDS011;8802;52.402;4.920;2024-01-07T10:57:26;3.03;;;2.53;;
17369;SDS011;8802;52.402;4.920;2024-01-07T11:00:02;3.92;;;3.08;;
17369;SDS011;8802;52.402;4.920;2024-01-07T11:02:32;4.25;;;3.30;;
17369;SDS011;8802;52.402;4.920;2024-01-07T11:05:05;3.38;;;2.78;;
17369;SDS011;8802;52.402;4.920;2024-01-07T11:07:41;2.45;;;2.05;;
17369;SDS011;8802;52.402;4.920;2024-01-07T11:10:13;2.20;;;1.90;;
17369;SDS011;8802;52.402;4.920;2024-01-07T11:12:47;3.40;;;2.03;;
17369;SDS011;8802;52.402;4.920;2024-01-07T11:18:28;2.13;;;1.65;;
17369;SDS011;8802;52.402;4.920;2024-01-07T11:20:58;2.33;;;2.05;;
17369;SDS011;8802;52.402;4.920;2024-01-07T11:23:27;1.65;;;1.55;;
17369;SDS011;8802;52.402;4.920;2024-01-07T11:25:56;2.35;;;1.50;;
17369;SDS011;8802;52.402;4.920;2024-01-07T11:31:09;2.83;;;2.05;;
17369;SDS011;8802;52.402;4.920;2024-01-07T11:33:37;2.42;;;1.48;;
17369;SDS011;8802;52.402;4.920;2024-01-07T11:36:04;2.00;;;1.73;;
17369;SDS011;8802;52.402;4.920;2024-01-07T11:38:33;3.03;;;1.63;;
17369;SDS011;8802;52.402;4.920;2024-01-07T11:41:02;2.08;;;1.45;;
17369;SDS011;8802;52.402;4.920;2024-01-07T11:43:30;1.60;;;1.50;;
17369;SDS011;8802;52.402;4.920;2024-01-07T11:45:58;2.03;;;1.80;;
17369;SDS011;8802;52.402;4.920;2024-01-07T11:48:25;2.22;;;1.63;;
17369;SDS011;8802;52.402;4.920;2024-01-07T11:50:54;2.90;;;1.55;;
17369;SDS011;8802;52.402;4.920;2024-01-07T11:53:21;3.63;;;1.83;;
17369;SDS011;8802;52.402;4.920;2024-01-07T11:55:48;2.95;;;1.67;;
17369;SDS011;8802;52.402;4.920;2024-01-07T11:58:15;3.33;;;1.77;;
17369;SDS011;8802;52.402;4.920;2024-01-07T12:00:42;2.42;;;1.90;;
17369;SDS011;8802;52.402;4.920;2024-01-07T12:03:09;2.70;;;2.00;;
17369;SDS011;8802;52.402;4.920;2024-01-07T12:05:37;2.75;;;1.80;;
17369;SDS011;8802;52.402;4.920;2024-01-07T12:08:05;2.72;;;1.88;;
17369;SDS011;8802;52.402;4.920;2024-01-07T12:10:32;1.95;;;1.83;;
17369;SDS011;8802;52.402;4.920;2024-01-07T12:12:59;2.75;;;1.80;;
17369;SDS011;8802;52.402;4.920;2024-01-07T12:15:28;1.98;;;1.75;;
17369;SDS011;8802;52.402;4.920;2024-01-07T12:17:56;3.78;;;1.40;;
17369;SDS011;8802;52.402;4.920;2024-01-07T12:20:25;3.78;;;2.55;;
17369;SDS011;8802;52.402;4.920;2024-01-07T12:22:55;2.53;;;1.65;;
17369;SDS011;8802;52.402;4.920;2024-01-07T12:25:24;2.40;;;1.73;;
17369;SDS011;8802;52.402;4.920;2024-01-07T12:27:51;2.75;;;1.83;;
17369;SDS011;8802;52.402;4.920;2024-01-07T12:30:19;1.95;;;1.48;;
17369;SDS011;8802;52.402;4.920;2024-01-07T12:32:46;2.22;;;1.75;;
17369;SDS011;8802;52.402;4.920;2024-01-07T12:35:14;1.70;;;1.60;;
17369;SDS011;8802;52.402;4.920;2024-01-07T12:37:42;2.47;;;1.65;;
17369;SDS011;8802;52.402;4.920;2024-01-07T12:40:10;2.05;;;1.80;;
17369;SDS011;8802;52.402;4.920;2024-01-07T12:42:39;1.65;;;1.35;;
17369;SDS011;8802;52.402;4.920;2024-01-07T12:45:10;2.05;;;1.50;;
17369;SDS011;8802;52.402;4.920;2024-01-07T12:47:38;2.38;;;1.55;;
17369;SDS011;8802;52.402;4.920;2024-01-07T12:50:06;1.95;;;1.73;;
17369;SDS011;8802;52.402;4.920;2024-01-07T12:52:34;1.58;;;1.23;;
17369;SDS011;8802;52.402;4.920;2024-01-07T12:55:02;4.70;;;1.77;;
17369;SDS011;8802;52.402;4.920;2024-01-07T12:57:29;1.58;;;1.48;;
17369;SDS011;8802;52.402;4.920;2024-01-07T12:59:58;1.50;;;1.40;;
17369;SDS011;8802;52.402;4.920;2024-01-07T13:02:24;2.72;;;1.40;;
17369;SDS011;8802;52.402;4.920;2024-01-07T13:04:52;1.92;;;1.50;;
17369;SDS011;8802;52.402;4.920;2024-01-07T13:07:18;2.08;;;1.40;;
17369;SDS011;8802;52.402;4.920;2024-01-07T13:09:45;3.03;;;1.50;;
17369;SDS011;8802;52.402;4.920;2024-01-07T13:12:12;2.60;;;1.60;;
17369;SDS011;8802;52.402;4.920;2024-01-07T13:14:39;2.83;;;1.58;;
17369;SDS011;8802;52.402;4.920;2024-01-07T13:17:09;2.80;;;1.50;;
17369;SDS011;8802;52.402;4.920;2024-01-07T13:19:35;2.00;;;1.52;;
17369;SDS011;8802;52.402;4.920;2024-01-07T13:22:02;2.50;;;1.58;;
17369;SDS011;8802;52.402;4.920;2024-01-07T13:24:30;2.33;;;1.40;;
17369;SDS011;8802;52.402;4.920;2024-01-07T13:26:56;1.48;;;1.38;;
17369;SDS011;8802;52.402;4.920;2024-01-07T13:29:23;2.45;;;1.70;;
17369;SDS011;8802;52.402;4.920;2024-01-07T13:31:50;2.42;;;1.42;;
17369;SDS011;8802;52.402;4.920;2024-01-07T13:34:19;1.58;;;1.13;;
17369;SDS011;8802;52.402;4.920;2024-01-07T13:36:46;1.58;;;1.25;;
17369;SDS011;8802;52.402;4.920;2024-01-07T13:39:13;3.05;;;1.50;;
17369;SDS011;8802;52.402;4.920;2024-01-07T13:41:41;2.50;;;1.35;;
17369;SDS011;8802;52.402;4.920;2024-01-07T13:44:08;1.80;;;1.00;;
17369;SDS011;8802;52.402;4.920;2024-01-07T13:46:42;2.13;;;1.48;;
17369;SDS011;8802;52.402;4.920;2024-01-07T13:49:09;1.67;;;1.30;;
17369;SDS011;8802;52.402;4.920;2024-01-07T13:51:38;2.88;;;1.70;;
17369;SDS011;8802;52.402;4.920;2024-01-07T13:54:05;2.50;;;1.42;;
17369;SDS011;8802;52.402;4.920;2024-01-07T13:56:32;1.88;;;1.48;;
17369;SDS011;8802;52.402;4.920;2024-01-07T13:59:01;3.15;;;1.67;;
17369;SDS011;8802;52.402;4.920;2024-01-07T14:01:29;2.00;;;1.30;;
17369;SDS011;8802;52.402;4.920;2024-01-07T14:03:56;2.25;;;1.50;;
17369;SDS011;8802;52.402;4.920;2024-01-07T14:06:23;1.83;;;1.73;;
17369;SDS011;8802;52.402;4.920;2024-01-07T14:08:51;1.60;;;1.50;;
17369;SDS011;8802;52.402;4.920;2024-01-07T14:11:18;1.45;;;1.27;;
17369;SDS011;8802;52.402;4.920;2024-01-07T14:13:46;1.60;;;1.45;;
17369;SDS011;8802;52.402;4.920;2024-01-07T14:16:13;2.00;;;1.70;;
17369;SDS011;8802;52.402;4.920;2024-01-07T14:18:40;2.03;;;1.50;;
17369;SDS011;8802;52.402;4.920;2024-01-07T14:21:07;2.00;;;1.80;;
17369;SDS011;8802;52.402;4.920;2024-01-07T14:23:34;2.40;;;1.90;;
17369;SDS011;8802;52.402;4.920;2024-01-07T14:26:03;2.85;;;2.55;;
17369;SDS011;8802;52.402;4.920;2024-01-07T14:28:30;4.13;;;2.70;;
17369;SDS011;8802;52.402;4.920;2024-01-07T14:30:57;5.13;;;2.10;;
17369;SDS011;8802;52.402;4.920;2024-01-07T14:33:24;2.00;;;1.85;;
17369;SDS011;8802;52.402;4.920;2024-01-07T14:35:51;2.97;;;2.15;;
17369;SDS011;8802;52.402;4.920;2024-01-07T14:38:17;2.50;;;2.10;;
17369;SDS011;8802;52.402;4.920;2024-01-07T14:40:44;3.75;;;1.83;;
17369;SDS011;8802;52.402;4.920;2024-01-07T14:43:13;3.15;;;1.98;;
17369;SDS011;8802;52.402;4.920;2024-01-07T14:45:40;2.40;;;1.80;;
17369;SDS011;8802;52.402;4.920;2024-01-07T14:48:08;1.90;;;1.48;;
17369;SDS011;8802;52.402;4.920;2024-01-07T14:50:35;1.45;;;1.30;;
17369;SDS011;8802;52.402;4.920;2024-01-07T14:53:02;2.72;;;1.50;;
17369;SDS011;8802;52.402;4.920;2024-01-07T14:55:29;1.58;;;1.38;;
17369;SDS011;8802;52.402;4.920;2024-01-07T14:57:56;1.63;;;1.52;;
17369;SDS011;8802;52.402;4.920;2024-01-07T15:00:24;2.72;;;1.52;;
17369;SDS011;8802;52.402;4.920;2024-01-07T15:02:51;2.53;;;1.50;;
17369;SDS011;8802;52.402;4.920;2024-01-07T15:05:16;2.75;;;1.65;;
17369;SDS011;8802;52.402;4.920;2024-01-07T15:07:43;3.72;;;1.58;;
17369;SDS011;8802;52.402;4.920;2024-01-07T15:10:14;2.95;;;1.80;;